sensor_id;sensor_type;location;lat;lon;timestamp;pressure;altitude;pressure_sealevel;temperature;humidity
63493;BME280;49638;47.526;10.028;2023-01-16T00:01:20;90664.03;;;-1.00;89.56
63493;BME280;49638;47.526;10.028;2023-01-16T00:04:21;90661.06;;;-0.97;89.55
63493;BME280;49638;47.526;10.028;2023-01-16T00:07:21;90645.88;;;-1.00;89.06
63493;BME280;49638;47.526;10.028;2023-01-16T00:10:22;90635.53;;;-1.06;88.82
63493;BME280;49638;47.526;10.028;2023-01-16T00:13:22;90637.13;;;-1.05;89.13
63493;BME280;49638;47.526;10.028;2023-01-16T00:16:22;90641.31;;;-0.98;89.08
63493;BME280;49638;47.526;10.028;2023-01-16T00:19:23;90627.53;;;-0.91;88.53
63493;BME280;49638;47.526;10.028;2023-01-16T00:22:23;90607.41;;;-1.03;88.48
63493;BME280;49638;47.526;10.028;2023-01-16T00:25:23;90619.97;;;-1.00;88.54
63493;BME280;49638;47.526;10.028;2023-01-16T00:28:23;90618.16;;;-0.99;88.17
63493;BME280;49638;47.526;10.028;2023-01-16T00:31:24;90614.78;;;-1.06;88.92
63493;BME280;49638;47.526;10.028;2023-01-16T00:34:27;90593.25;;;-1.20;89.05
63493;BME280;49638;47.526;10.028;2023-01-16T00:37:28;90604.41;;;-1.13;89.00
63493;BME280;49638;47.526;10.028;2023-01-16T00:40:28;90590.47;;;-1.12;88.92
63493;BME280;49638;47.526;10.028;2023-01-16T00:43:28;90586.88;;;-1.11;89.32
63493;BME280;49638;47.526;10.028;2023-01-16T00:46:29;90599.22;;;-1.06;88.99
63493;BME280;49638;47.526;10.028;2023-01-16T00:49:29;90593.06;;;-1.05;89.11
63493;BME280;49638;47.526;10.028;2023-01-16T00:52:29;90585.06;;;-1.10;89.71
63493;BME280;49638;47.526;10.028;2023-01-16T00:55:33;90585.69;;;-1.15;88.98
63493;BME280;49638;47.526;10.028;2023-01-16T00:58:33;90564.72;;;-1.20;89.20
63493;BME280;49638;47.526;10.028;2023-01-16T01:01:34;90567.53;;;-1.15;88.93
63493;BME280;49638;47.526;10.028;2023-01-16T01:04:35;90559.78;;;-1.28;89.66
63493;BME280;49638;47.526;10.028;2023-01-16T01:07:36;90562.34;;;-1.22;89.42
63493;BME280;49638;47.526;10.028;2023-01-16T01:10:37;90553.59;;;-1.27;89.35
63493;BME280;49638;47.526;10.028;2023-01-16T01:13:39;90555.38;;;-1.28;89.21
63493;BME280;49638;47.526;10.028;2023-01-16T01:16:40;90558.16;;;-1.29;89.24
63493;BME280;49638;47.526;10.028;2023-01-16T01:19:40;90552.19;;;-1.36;89.34
63493;BME280;49638;47.526;10.028;2023-01-16T01:22:40;90529.47;;;-1.48;89.48
63493;BME280;49638;47.526;10.028;2023-01-16T01:25:40;90543.63;;;-1.44;90.02
63493;BME280;49638;47.526;10.028;2023-01-16T01:28:41;90529.09;;;-1.45;89.62
63493;BME280;49638;47.526;10.028;2023-01-16T01:31:42;90526.09;;;-1.41;89.55
63493;BME280;49638;47.526;10.028;2023-01-16T01:34:42;90520.50;;;-1.38;89.73
63493;BME280;49638;47.526;10.028;2023-01-16T01:37:42;90521.50;;;-1.39;88.93
63493;BME280;49638;47.526;10.028;2023-01-16T01:40:42;90520.31;;;-1.44;89.64
63493;BME280;49638;47.526;10.028;2023-01-16T01:43:49;90508.34;;;-1.45;88.66
63493;BME280;49638;47.526;10.028;2023-01-16T01:46:49;90507.72;;;-1.33;88.43
63493;BME280;49638;47.526;10.028;2023-01-16T01:49:51;90500.34;;;-1.30;88.73
63493;BME280;49638;47.526;10.028;2023-01-16T01:52:53;90471.84;;;-1.43;87.95
63493;BME280;49638;47.526;10.028;2023-01-16T01:55:55;90481.81;;;-1.27;88.31
63493;BME280;49638;47.526;10.028;2023-01-16T01:59:02;90479.19;;;-1.20;87.50
63493;BME280;49638;47.526;10.028;2023-01-16T02:02:08;90476.41;;;-1.12;87.92
63493;BME280;49638;47.526;10.028;2023-01-16T02:05:12;90472.19;;;-1.13;86.97
63493;BME280;49638;47.526;10.028;2023-01-16T02:08:19;90449.25;;;-1.16;87.00
63493;BME280;49638;47.526;10.028;2023-01-16T02:11:32;90449.44;;;-1.04;85.75
63493;BME280;49638;47.526;10.028;2023-01-16T02:14:38;90434.84;;;-0.99;86.53
63493;BME280;49638;47.526;10.028;2023-01-16T02:17:45;90427.25;;;-0.93;86.83
63493;BME280;49638;47.526;10.028;2023-01-16T02:21:24;90433.19;;;-0.86;85.69
63493;BME280;49638;47.526;10.028;2023-01-16T02:37:49;90393.28;;;-0.85;84.43
63493;BME280;49638;47.526;10.028;2023-01-16T02:40:57;90383.13;;;-0.87;84.79
63493;BME280;49638;47.526;10.028;2023-01-16T02:44:17;90380.56;;;-0.93;85.96
63493;BME280;49638;47.526;10.028;2023-01-16T02:47:43;90370.44;;;-1.02;85.61
63493;BME280;49638;47.526;10.028;2023-01-16T02:50:53;90342.97;;;-1.16;84.93
63493;BME280;49638;47.526;10.028;2023-01-16T02:54:40;90354.31;;;-1.10;84.48
63493;BME280;49638;47.526;10.028;2023-01-16T02:57:20;90346.16;;;-1.14;85.80
63493;BME280;49638;47.526;10.028;2023-01-16T03:00:22;90339.63;;;-1.23;84.73
63493;BME280;49638;47.526;10.028;2023-01-16T03:03:36;90337.25;;;-1.25;82.74
63493;BME280;49638;47.526;10.028;2023-01-16T03:16:30;90302.88;;;-1.13;84.13
63493;BME280;49638;47.526;10.028;2023-01-16T03:19:43;90294.47;;;-1.09;83.78
63493;BME280;49638;47.526;10.028;2023-01-16T03:26:04;90280.19;;;-1.18;84.21
63493;BME280;49638;47.526;10.028;2023-01-16T03:29:30;90269.06;;;-1.25;82.82
63493;BME280;49638;47.526;10.028;2023-01-16T03:32:40;90258.53;;;-1.30;84.04
63493;BME280;49638;47.526;10.028;2023-01-16T03:35:48;90246.66;;;-1.45;83.77
63493;BME280;49638;47.526;10.028;2023-01-16T03:38:50;90240.50;;;-1.50;84.96
63493;BME280;49638;47.526;10.028;2023-01-16T03:41:53;90224.56;;;-1.54;84.55
63493;BME280;49638;47.526;10.028;2023-01-16T03:44:55;90222.22;;;-1.62;85.00
63493;BME280;49638;47.526;10.028;2023-01-16T03:48:05;90197.59;;;-1.78;84.97
63493;BME280;49638;47.526;10.028;2023-01-16T03:51:08;90198.78;;;-1.74;85.04
63493;BME280;49638;47.526;10.028;2023-01-16T03:57:22;90185.25;;;-1.76;86.49
63493;BME280;49638;47.526;10.028;2023-01-16T04:00:27;90174.09;;;-1.76;85.56
63493;BME280;49638;47.526;10.028;2023-01-16T04:03:36;90164.16;;;-1.79;84.59
63493;BME280;49638;47.526;10.028;2023-01-16T04:06:48;90151.59;;;-1.76;85.09
63493;BME280;49638;47.526;10.028;2023-01-16T04:09:57;90149.94;;;-1.70;84.24
63493;BME280;49638;47.526;10.028;2023-01-16T04:13:08;90149.78;;;-1.75;84.83
63493;BME280;49638;47.526;10.028;2023-01-16T04:16:12;90138.81;;;-1.77;86.21
63493;BME280;49638;47.526;10.028;2023-01-16T04:19:19;90126.56;;;-1.88;86.99
63493;BME280;49638;47.526;10.028;2023-01-16T04:22:27;90112.03;;;-1.89;86.55
63493;BME280;49638;47.526;10.028;2023-01-16T04:25:27;90102.63;;;-1.84;86.22
63493;BME280;49638;47.526;10.028;2023-01-16T04:28:28;90091.31;;;-1.89;86.14
63493;BME280;49638;47.526;10.028;2023-01-16T04:31:28;90088.72;;;-1.89;86.08
63493;BME280;49638;47.526;10.028;2023-01-16T04:34:28;90081.16;;;-1.91;85.85
63493;BME280;49638;47.526;10.028;2023-01-16T04:37:29;90068.47;;;-1.99;85.36
63493;BME280;49638;47.526;10.028;2023-01-16T04:40:29;90066.72;;;-2.05;85.44
63493;BME280;49638;47.526;10.028;2023-01-16T04:43:29;90052.97;;;-2.06;86.84
63493;BME280;49638;47.526;10.028;2023-01-16T04:46:30;90033.34;;;-2.13;86.25
63493;BME280;49638;47.526;10.028;2023-01-16T04:49:30;90023.41;;;-2.17;86.46
63493;BME280;49638;47.526;10.028;2023-01-16T04:52:30;90020.59;;;-2.15;86.15
63493;BME280;49638;47.526;10.028;2023-01-16T04:55:31;90023.34;;;-2.10;86.70
63493;BME280;49638;47.526;10.028;2023-01-16T04:58:31;90022.16;;;-2.14;87.15
63493;BME280;49638;47.526;10.028;2023-01-16T05:01:31;90009.06;;;-2.19;86.37
63493;BME280;49638;47.526;10.028;2023-01-16T05:04:34;89994.78;;;-2.28;85.34
63493;BME280;49638;47.526;10.028;2023-01-16T05:07:35;89991.47;;;-2.35;85.46
63493;BME280;49638;47.526;10.028;2023-01-16T05:10:35;89978.97;;;-2.45;86.19
63493;BME280;49638;47.526;10.028;2023-01-16T05:13:35;89977.00;;;-2.43;86.51
63493;BME280;49638;47.526;10.028;2023-01-16T05:16:37;89963.50;;;-2.52;86.34
63493;BME280;49638;47.526;10.028;2023-01-16T05:19:38;89962.53;;;-2.51;85.51
63493;BME280;49638;47.526;10.028;2023-01-16T05:22:38;89940.44;;;-2.53;85.77
63493;BME280;49638;47.526;10.028;2023-01-16T05:25:38;89934.31;;;-2.59;85.27
63493;BME280;49638;47.526;10.028;2023-01-16T05:28:39;89920.75;;;-2.54;86.42
63493;BME280;49638;47.526;10.028;2023-01-16T05:31:39;89906.56;;;-2.45;86.54
63493;BME280;49638;47.526;10.028;2023-01-16T05:34:39;89905.31;;;-2.36;86.55
63493;BME280;49638;47.526;10.028;2023-01-16T05:37:39;89880.63;;;-2.39;86.55
63493;BME280;49638;47.526;10.028;2023-01-16T05:40:40;89880.63;;;-2.39;86.95
63493;BME280;49638;47.526;10.028;2023-01-16T05:43:41;89866.53;;;-2.43;87.00
63493;BME280;49638;47.526;10.028;2023-01-16T05:46:41;89840.78;;;-2.56;85.63
63493;BME280;49638;47.526;10.028;2023-01-16T05:49:42;89844.69;;;-2.47;86.40
63493;BME280;49638;47.526;10.028;2023-01-16T05:52:42;89830.38;;;-2.49;86.06
63493;BME280;49638;47.526;10.028;2023-01-16T05:55:45;89826.72;;;-2.42;85.95
63493;BME280;49638;47.526;10.028;2023-01-16T05:58:46;89811.50;;;-2.31;85.34
63493;BME280;49638;47.526;10.028;2023-01-16T06:01:46;89789.25;;;-2.32;85.57
63493;BME280;49638;47.526;10.028;2023-01-16T06:04:46;89789.59;;;-2.29;86.50
63493;BME280;49638;47.526;10.028;2023-01-16T06:07:46;89788.03;;;-2.30;86.20
63493;BME280;49638;47.526;10.028;2023-01-16T06:10:47;89776.72;;;-2.35;86.14
63493;BME280;49638;47.526;10.028;2023-01-16T06:13:48;89772.22;;;-2.40;85.70
63493;BME280;49638;47.526;10.028;2023-01-16T06:16:48;89766.25;;;-2.41;85.72
63493;BME280;49638;47.526;10.028;2023-01-16T06:19:48;89756.34;;;-2.44;85.74
63493;BME280;49638;47.526;10.028;2023-01-16T06:22:49;89749.78;;;-2.46;85.74
63493;BME280;49638;47.526;10.028;2023-01-16T06:25:49;89731.81;;;-2.59;85.84
63493;BME280;49638;47.526;10.028;2023-01-16T06:28:50;89731.97;;;-2.54;85.02
63493;BME280;49638;47.526;10.028;2023-01-16T06:31:50;89725.69;;;-2.65;84.74
63493;BME280;49638;47.526;10.028;2023-01-16T06:34:50;89706.72;;;-2.77;85.32
63493;BME280;49638;47.526;10.028;2023-01-16T06:37:50;89699.19;;;-2.79;85.61
63493;BME280;49638;47.526;10.028;2023-01-16T06:40:51;89699.81;;;-2.83;85.66
63493;BME280;49638;47.526;10.028;2023-01-16T06:43:56;89688.09;;;-2.86;86.03
63493;BME280;49638;47.526;10.028;2023-01-16T06:46:56;89674.81;;;-2.90;85.94
63493;BME280;49638;47.526;10.028;2023-01-16T06:49:57;89674.41;;;-2.87;86.31
63493;BME280;49638;47.526;10.028;2023-01-16T06:52:57;89654.31;;;-2.84;87.30
63493;BME280;49638;47.526;10.028;2023-01-16T06:55:57;89649.03;;;-2.96;85.79
63493;BME280;49638;47.526;10.028;2023-01-16T06:58:57;89640.72;;;-2.98;85.30
63493;BME280;49638;47.526;10.028;2023-01-16T07:01:58;89634.03;;;-3.06;85.43
63493;BME280;49638;47.526;10.028;2023-01-16T07:04:58;89631.97;;;-3.16;85.59
63493;BME280;49638;47.526;10.028;2023-01-16T07:07:58;89614.50;;;-3.20;86.03
63493;BME280;49638;47.526;10.028;2023-01-16T07:10:59;89604.53;;;-3.17;86.09
63493;BME280;49638;47.526;10.028;2023-01-16T07:14:00;89610.94;;;-3.01;85.70
63493;BME280;49638;47.526;10.028;2023-01-16T07:17:19;89596.16;;;-2.94;85.62
63493;BME280;49638;47.526;10.028;2023-01-16T07:20:38;89572.03;;;-2.88;85.23
63493;BME280;49638;47.526;10.028;2023-01-16T07:24:01;89566.63;;;-2.86;85.26
63493;BME280;49638;47.526;10.028;2023-01-16T07:27:04;89552.63;;;-2.97;84.87
63493;BME280;49638;47.526;10.028;2023-01-16T07:30:07;89558.16;;;-2.93;85.73
63493;BME280;49638;47.526;10.028;2023-01-16T07:33:07;89545.41;;;-2.88;86.25
63493;BME280;49638;47.526;10.028;2023-01-16T07:36:08;89533.72;;;-2.79;85.62
63493;BME280;49638;47.526;10.028;2023-01-16T07:39:08;89527.25;;;-2.70;85.89
63493;BME280;49638;47.526;10.028;2023-01-16T07:42:08;89535.72;;;-2.63;85.76
63493;BME280;49638;47.526;10.028;2023-01-16T07:45:09;89503.22;;;-2.70;85.99
63493;BME280;49638;47.526;10.028;2023-01-16T07:48:09;89520.25;;;-2.51;86.20
63493;BME280;49638;47.526;10.028;2023-01-16T07:51:09;89508.56;;;-2.42;86.16
63493;BME280;49638;47.526;10.028;2023-01-16T07:54:10;89497.59;;;-2.37;85.32
63493;BME280;49638;47.526;10.028;2023-01-16T07:57:11;89493.53;;;-2.33;85.82
63493;BME280;49638;47.526;10.028;2023-01-16T08:00:12;89483.31;;;-2.28;85.70
63493;BME280;49638;47.526;10.028;2023-01-16T08:03:13;89483.56;;;-2.18;85.54
63493;BME280;49638;47.526;10.028;2023-01-16T08:06:14;89460.84;;;-2.16;85.74
63493;BME280;49638;47.526;10.028;2023-01-16T08:09:14;89465.91;;;-2.09;85.91
63493;BME280;49638;47.526;10.028;2023-01-16T08:12:14;89448.91;;;-2.05;84.95
63493;BME280;49638;47.526;10.028;2023-01-16T08:15:15;89434.41;;;-2.06;84.20
63493;BME280;49638;47.526;10.028;2023-01-16T08:18:15;89425.75;;;-2.00;84.28
63493;BME280;49638;47.526;10.028;2023-01-16T08:21:16;89420.13;;;-1.97;84.02
63493;BME280;49638;47.526;10.028;2023-01-16T08:24:16;89412.69;;;-1.93;84.61
63493;BME280;49638;47.526;10.028;2023-01-16T08:27:17;89397.94;;;-1.93;85.08
63493;BME280;49638;47.526;10.028;2023-01-16T08:30:19;89365.53;;;-1.95;85.05
63493;BME280;49638;47.526;10.028;2023-01-16T08:33:19;89385.97;;;-1.70;84.53
63493;BME280;49638;47.526;10.028;2023-01-16T08:36:19;89365.84;;;-1.68;84.08
63493;BME280;49638;47.526;10.028;2023-01-16T08:39:20;89356.03;;;-1.66;84.19
63493;BME280;49638;47.526;10.028;2023-01-16T08:42:21;89322.72;;;-1.74;84.07
63493;BME280;49638;47.526;10.028;2023-01-16T08:45:39;89322.69;;;-1.62;84.01
63493;BME280;49638;47.526;10.028;2023-01-16T08:48:58;89325.50;;;-1.52;83.96
63493;BME280;49638;47.526;10.028;2023-01-16T08:52:17;89322.66;;;-1.51;83.96
63493;BME280;49638;47.526;10.028;2023-01-16T08:55:17;89306.00;;;-1.55;84.40
63493;BME280;49638;47.526;10.028;2023-01-16T08:58:18;89301.00;;;-1.45;83.61
63493;BME280;49638;47.526;10.028;2023-01-16T09:01:20;89299.78;;;-1.42;83.96
63493;BME280;49638;47.526;10.028;2023-01-16T09:04:21;89291.47;;;-1.27;83.79
63493;BME280;49638;47.526;10.028;2023-01-16T09:07:22;89291.59;;;-1.22;84.21
63493;BME280;49638;47.526;10.028;2023-01-16T09:10:22;89279.25;;;-1.15;84.02
63493;BME280;49638;47.526;10.028;2023-01-16T09:13:23;89278.72;;;-1.00;83.93
63493;BME280;49638;47.526;10.028;2023-01-16T09:16:42;89264.34;;;-0.91;83.77
63493;BME280;49638;47.526;10.028;2023-01-16T09:19:42;89255.13;;;-0.82;84.00
63493;BME280;49638;47.526;10.028;2023-01-16T09:22:42;89255.94;;;-0.64;83.95
63493;BME280;49638;47.526;10.028;2023-01-16T09:25:43;89252.69;;;-0.55;82.94
63493;BME280;49638;47.526;10.028;2023-01-16T09:28:43;89247.81;;;-0.51;84.00
63493;BME280;49638;47.526;10.028;2023-01-16T09:31:43;89247.94;;;-0.41;84.86
63493;BME280;49638;47.526;10.028;2023-01-16T09:34:44;89234.28;;;-0.36;85.13
63493;BME280;49638;47.526;10.028;2023-01-16T09:37:45;89237.91;;;-0.15;83.99
63493;BME280;49638;47.526;10.028;2023-01-16T09:40:46;89228.91;;;-0.08;83.26
63493;BME280;49638;47.526;10.028;2023-01-16T09:43:49;89231.59;;;-0.03;83.99
63493;BME280;49638;47.526;10.028;2023-01-16T09:46:51;89227.53;;;0.07;83.50
63493;BME280;49638;47.526;10.028;2023-01-16T09:50:29;89229.94;;;0.13;81.78
63493;BME280;49638;47.526;10.028;2023-01-16T09:53:51;89228.28;;;0.24;81.28
63493;BME280;49638;47.526;10.028;2023-01-16T09:57:13;89230.44;;;0.32;82.97
63493;BME280;49638;47.526;10.028;2023-01-16T10:00:34;89234.97;;;0.42;83.01
63493;BME280;49638;47.526;10.028;2023-01-16T10:03:35;89234.22;;;0.46;83.31
63493;BME280;49638;47.526;10.028;2023-01-16T10:06:56;89233.84;;;0.60;81.95
63493;BME280;49638;47.526;10.028;2023-01-16T10:10:32;89227.84;;;0.59;76.09
63493;BME280;49638;47.526;10.028;2023-01-16T10:13:49;89252.31;;;0.63;77.31
63493;BME280;49638;47.526;10.028;2023-01-16T10:20:25;89281.28;;;0.72;78.80
63493;BME280;49638;47.526;10.028;2023-01-16T10:30:02;89277.53;;;0.90;78.38
63493;BME280;49638;47.526;10.028;2023-01-16T10:33:12;89268.09;;;1.06;74.22
63493;BME280;49638;47.526;10.028;2023-01-16T10:36:14;89259.56;;;1.15;77.25
63493;BME280;49638;47.526;10.028;2023-01-16T10:39:18;89258.84;;;1.20;78.36
63493;BME280;49638;47.526;10.028;2023-01-16T10:42:28;89252.66;;;1.26;77.49
63493;BME280;49638;47.526;10.028;2023-01-16T10:45:48;89258.34;;;1.23;79.33
63493;BME280;49638;47.526;10.028;2023-01-16T10:49:11;89252.38;;;1.28;79.27
63493;BME280;49638;47.526;10.028;2023-01-16T10:52:28;89246.41;;;1.27;78.34
63493;BME280;49638;47.526;10.028;2023-01-16T10:55:30;89242.97;;;1.22;78.46
63493;BME280;49638;47.526;10.028;2023-01-16T10:58:36;89236.78;;;1.28;77.64
63493;BME280;49638;47.526;10.028;2023-01-16T11:01:37;89232.91;;;1.35;80.14
63493;BME280;49638;47.526;10.028;2023-01-16T11:04:39;89241.28;;;1.42;80.39
63493;BME280;49638;47.526;10.028;2023-01-16T11:07:41;89227.50;;;1.42;79.40
63493;BME280;49638;47.526;10.028;2023-01-16T11:10:44;89232.28;;;1.55;78.10
63493;BME280;49638;47.526;10.028;2023-01-16T11:13:44;89223.75;;;1.60;77.15
63493;BME280;49638;47.526;10.028;2023-01-16T11:17:26;89225.59;;;1.64;74.52
63493;BME280;49638;47.526;10.028;2023-01-16T11:20:46;89225.31;;;1.66;78.62
63493;BME280;49638;47.526;10.028;2023-01-16T11:23:49;89230.50;;;1.61;75.13
63493;BME280;49638;47.526;10.028;2023-01-16T11:26:57;89234.16;;;1.60;76.29
63493;BME280;49638;47.526;10.028;2023-01-16T11:30:03;89222.94;;;1.59;74.78
63493;BME280;49638;47.526;10.028;2023-01-16T11:33:04;89226.28;;;1.55;74.79
63493;BME280;49638;47.526;10.028;2023-01-16T11:36:08;89229.38;;;1.47;74.75
63493;BME280;49638;47.526;10.028;2023-01-16T11:39:19;89220.72;;;1.36;71.31
63493;BME280;49638;47.526;10.028;2023-01-16T11:42:21;89220.41;;;1.32;74.35
63493;BME280;49638;47.526;10.028;2023-01-16T11:45:46;89221.91;;;1.23;72.22
63493;BME280;49638;47.526;10.028;2023-01-16T11:49:18;89220.88;;;1.24;72.98
63493;BME280;49638;47.526;10.028;2023-01-16T11:52:22;89201.06;;;1.18;71.94
63493;BME280;49638;47.526;10.028;2023-01-16T11:55:39;89197.13;;;1.15;68.76
63493;BME280;49638;47.526;10.028;2023-01-16T11:58:50;89208.16;;;1.28;71.94
63493;BME280;49638;47.526;10.028;2023-01-16T12:02:05;89204.50;;;1.29;74.62
63493;BME280;49638;47.526;10.028;2023-01-16T12:12:36;89188.53;;;1.10;74.77
63493;BME280;49638;47.526;10.028;2023-01-16T12:26:25;89169.44;;;0.67;77.87
63493;BME280;49638;47.526;10.028;2023-01-16T12:29:38;89172.13;;;0.77;79.02
63493;BME280;49638;47.526;10.028;2023-01-16T12:32:59;89166.78;;;0.89;77.82
63493;BME280;49638;47.526;10.028;2023-01-16T12:36:20;89171.44;;;0.87;78.99
63493;BME280;49638;47.526;10.028;2023-01-16T12:46:37;89158.19;;;0.88;78.75
63493;BME280;49638;47.526;10.028;2023-01-16T13:04:29;89104.94;;;0.96;77.92
63493;BME280;49638;47.526;10.028;2023-01-16T13:07:35;89102.06;;;0.92;80.50
63493;BME280;49638;47.526;10.028;2023-01-16T13:10:44;89104.94;;;0.96;80.13
63493;BME280;49638;47.526;10.028;2023-01-16T13:14:06;89083.91;;;1.03;79.56
63493;BME280;49638;47.526;10.028;2023-01-16T13:17:16;89083.41;;;1.06;78.87
63493;BME280;49638;47.526;10.028;2023-01-16T13:20:21;89085.25;;;1.10;80.38
63493;BME280;49638;47.526;10.028;2023-01-16T13:23:24;89084.72;;;1.08;78.46
63493;BME280;49638;47.526;10.028;2023-01-16T13:26:26;89092.78;;;1.12;80.14
63493;BME280;49638;47.526;10.028;2023-01-16T13:29:33;89086.81;;;1.11;80.12
63493;BME280;49638;47.526;10.028;2023-01-16T13:32:42;89090.47;;;1.10;79.60
63493;BME280;49638;47.526;10.028;2023-01-16T13:36:12;89090.78;;;1.19;81.57
63493;BME280;49638;47.526;10.028;2023-01-16T13:42:34;89093.34;;;1.14;80.77
63493;BME280;49638;47.526;10.028;2023-01-16T13:45:40;89107.41;;;1.18;80.73
63493;BME280;49638;47.526;10.028;2023-01-16T13:48:57;89105.06;;;1.16;80.72
63493;BME280;49638;47.526;10.028;2023-01-16T13:52:01;89102.34;;;1.01;81.07
63493;BME280;49638;47.526;10.028;2023-01-16T13:55:02;89116.91;;;0.97;81.13
63493;BME280;49638;47.526;10.028;2023-01-16T13:58:15;89107.47;;;0.86;82.04
63493;BME280;49638;47.526;10.028;2023-01-16T14:01:36;89113.41;;;0.81;82.17
63493;BME280;49638;47.526;10.028;2023-01-16T14:08:27;89082.72;;;0.78;81.95
63493;BME280;49638;47.526;10.028;2023-01-16T14:15:19;89074.44;;;0.86;83.60
63493;BME280;49638;47.526;10.028;2023-01-16T14:18:43;89055.25;;;0.92;82.90
63493;BME280;49638;47.526;10.028;2023-01-16T14:22:02;89023.50;;;0.90;82.84
63493;BME280;49638;47.526;10.028;2023-01-16T14:25:13;89017.47;;;0.85;82.40
63493;BME280;49638;47.526;10.028;2023-01-16T14:28:17;89003.69;;;0.79;82.72
63493;BME280;49638;47.526;10.028;2023-01-16T14:31:26;89002.69;;;0.90;82.80
63493;BME280;49638;47.526;10.028;2023-01-16T14:34:31;89003.75;;;0.94;82.86
63493;BME280;49638;47.526;10.028;2023-01-16T14:37:38;88998.31;;;0.96;82.54
63493;BME280;49638;47.526;10.028;2023-01-16T14:40:47;88994.13;;;0.95;80.88
63493;BME280;49638;47.526;10.028;2023-01-16T14:44:12;88992.34;;;0.96;77.14
63493;BME280;49638;47.526;10.028;2023-01-16T14:47:32;88992.06;;;0.97;80.83
63493;BME280;49638;47.526;10.028;2023-01-16T14:51:06;88989.75;;;0.96;80.65
63493;BME280;49638;47.526;10.028;2023-01-16T14:54:34;88993.84;;;0.91;80.27
63493;BME280;49638;47.526;10.028;2023-01-16T14:57:56;88991.81;;;0.93;79.12
63493;BME280;49638;47.526;10.028;2023-01-16T15:00:57;88982.44;;;0.98;80.59
63493;BME280;49638;47.526;10.028;2023-01-16T15:04:22;88982.50;;;1.03;79.48
63493;BME280;49638;47.526;10.028;2023-01-16T15:07:45;89000.69;;;1.03;80.32
63493;BME280;49638;47.526;10.028;2023-01-16T15:10:50;88986.63;;;0.99;78.41
63493;BME280;49638;47.526;10.028;2023-01-16T15:14:11;88948.38;;;0.89;76.44
63493;BME280;49638;47.526;10.028;2023-01-16T15:17:38;89005.41;;;1.06;78.55
63493;BME280;49638;47.526;10.028;2023-01-16T15:20:57;88981.44;;;1.04;79.70
63493;BME280;49638;47.526;10.028;2023-01-16T15:24:20;88984.53;;;0.96;76.57
63493;BME280;49638;47.526;10.028;2023-01-16T15:27:28;89000.16;;;0.96;77.24
63493;BME280;49638;47.526;10.028;2023-01-16T15:30:32;88998.56;;;0.94;78.45
63493;BME280;49638;47.526;10.028;2023-01-16T15:33:33;89002.97;;;0.89;78.90
63493;BME280;49638;47.526;10.028;2023-01-16T15:37:18;89001.88;;;0.85;78.32
63493;BME280;49638;47.526;10.028;2023-01-16T15:40:27;88999.03;;;0.86;78.57
63493;BME280;49638;47.526;10.028;2023-01-16T15:43:27;89006.31;;;0.84;78.69
63493;BME280;49638;47.526;10.028;2023-01-16T15:46:59;89009.94;;;0.78;79.50
63493;BME280;49638;47.526;10.028;2023-01-16T15:50:17;89006.28;;;0.79;79.88
63493;BME280;49638;47.526;10.028;2023-01-16T15:53:22;89009.88;;;0.68;80.58
63493;BME280;49638;47.526;10.028;2023-01-16T15:56:36;89024.94;;;0.71;80.75
63493;BME280;49638;47.526;10.028;2023-01-16T15:59:50;89021.06;;;0.68;80.83
63493;BME280;49638;47.526;10.028;2023-01-16T16:02:55;89013.22;;;0.63;81.31
63493;BME280;49638;47.526;10.028;2023-01-16T16:05:59;88996.28;;;0.56;81.41
63493;BME280;49638;47.526;10.028;2023-01-16T16:09:03;88999.09;;;0.54;80.59
63493;BME280;49638;47.526;10.028;2023-01-16T16:12:03;88995.34;;;0.35;81.45
63493;BME280;49638;47.526;10.028;2023-01-16T16:15:17;89002.53;;;0.22;81.96
63493;BME280;49638;47.526;10.028;2023-01-16T16:18:36;89008.78;;;0.27;82.48
63493;BME280;49638;47.526;10.028;2023-01-16T16:21:42;89009.88;;;0.31;82.10
63493;BME280;49638;47.526;10.028;2023-01-16T16:25:17;88997.13;;;0.29;81.64
63493;BME280;49638;47.526;10.028;2023-01-16T16:31:34;89001.53;;;0.29;80.85
63493;BME280;49638;47.526;10.028;2023-01-16T16:34:49;89004.91;;;0.29;81.38
63493;BME280;49638;47.526;10.028;2023-01-16T16:37:52;88997.13;;;0.29;81.46
63493;BME280;49638;47.526;10.028;2023-01-16T16:44:21;89001.06;;;0.37;81.94
63493;BME280;49638;47.526;10.028;2023-01-16T16:47:27;89004.75;;;0.41;81.13
63493;BME280;49638;47.526;10.028;2023-01-16T16:50:30;89019.03;;;0.43;81.28
63493;BME280;49638;47.526;10.028;2023-01-16T16:53:32;89014.91;;;0.47;80.42
63493;BME280;49638;47.526;10.028;2023-01-16T16:56:36;89001.47;;;0.56;79.03
63493;BME280;49638;47.526;10.028;2023-01-16T16:59:37;89008.28;;;0.67;78.06
63493;BME280;49638;47.526;10.028;2023-01-16T17:02:38;89002.38;;;0.77;77.87
63493;BME280;49638;47.526;10.028;2023-01-16T17:05:39;88990.94;;;0.78;77.87
63493;BME280;49638;47.526;10.028;2023-01-16T17:08:40;88999.59;;;0.93;76.78
63493;BME280;49638;47.526;10.028;2023-01-16T17:11:40;89007.19;;;1.00;76.96
63493;BME280;49638;47.526;10.028;2023-01-16T17:14:41;89016.06;;;1.09;75.96
63493;BME280;49638;47.526;10.028;2023-01-16T17:17:45;89023.66;;;1.16;75.81
63493;BME280;49638;47.526;10.028;2023-01-16T17:20:45;89030.41;;;1.22;75.71
63493;BME280;49638;47.526;10.028;2023-01-16T17:23:46;89035.38;;;1.29;75.13
63493;BME280;49638;47.526;10.028;2023-01-16T17:26:47;89011.19;;;1.28;73.54
63493;BME280;49638;47.526;10.028;2023-01-16T17:29:47;89025.56;;;1.36;74.37
63493;BME280;49638;47.526;10.028;2023-01-16T17:32:59;89024.00;;;1.45;71.88
63493;BME280;49638;47.526;10.028;2023-01-16T17:36:01;89009.97;;;1.51;66.32
63493;BME280;49638;47.526;10.028;2023-01-16T17:39:10;89006.38;;;1.62;72.35
63493;BME280;49638;47.526;10.028;2023-01-16T17:42:10;88992.84;;;1.65;72.34
63493;BME280;49638;47.526;10.028;2023-01-16T17:45:22;88994.69;;;1.70;69.75
63493;BME280;49638;47.526;10.028;2023-01-16T17:48:43;88996.25;;;1.71;73.48
63493;BME280;49638;47.526;10.028;2023-01-16T17:51:44;89029.81;;;1.73;73.56
63493;BME280;49638;47.526;10.028;2023-01-16T17:54:44;89041.28;;;1.67;74.54
63493;BME280;49638;47.526;10.028;2023-01-16T17:58:03;89042.56;;;1.64;73.68